Time;durP1;ratioP1;P1;durP2;ratioP2;P2;SDS_P1;SDS_P2;PMS_P1;PMS_P2;Temp;Humidity;BMP_temperature;BMP_pressure;BME280_temperature;BME280_humidity;BME280_pressure;Samples;Min_cycle;Max_cycle;Signal;HPM_P1;HPM_P2
2023/06/17 00:01:37;;;;;;;0.70;0.70;;;;;;;21.79;100.00;99312.25;5071805;28;20198;-75
2023/06/17 00:04:04;;;;;;;0.70;0.70;;;;;;;21.73;100.00;99294.03;5071450;28;20206;-74
2023/06/17 00:06:31;;;;;;;0.70;0.70;;;;;;;21.85;100.00;99306.72;5071853;28;20583;-73
2023/06/17 00:08:59;;;;;;;0.80;0.80;;;;;;;21.95;100.00;99299.28;5071230;28;20701;-73
2023/06/17 00:11:28;;;;;;;0.80;0.80;;;;;;;22.00;100.00;99299.94;5071532;28;20591;-73
2023/06/17 00:13:56;;;;;;;0.77;0.77;;;;;;;21.88;100.00;99297.78;5071413;28;20206;-73
2023/06/17 00:16:23;;;;;;;0.80;0.80;;;;;;;21.67;100.00;99266.13;5071195;28;20654;-73
2023/06/17 00:18:51;;;;;;;1.00;1.00;;;;;;;21.84;100.00;99299.69;5071212;28;20260;-73
2023/06/17 00:21:18;;;;;;;0.80;0.80;;;;;;;21.83;100.00;99295.34;5071309;28;20198;-73
2023/06/17 00:23:45;;;;;;;0.70;0.70;;;;;;;21.89;100.00;99287.19;5070431;28;20202;-73
2023/06/17 00:26:11;;;;;;;0.70;0.70;;;;;;;21.96;100.00;99288.66;5071173;28;20239;-73
2023/06/17 00:28:40;;;;;;;0.70;0.70;;;;;;;22.08;100.00;99301.31;5070620;28;20219;-73
2023/06/17 00:31:06;;;;;;;0.80;0.80;;;;;;;21.98;100.00;99294.72;5071095;28;20231;-74
2023/06/17 00:33:33;;;;;;;0.70;0.70;;;;;;;22.03;100.00;99302.44;5071322;28;20264;-73
2023/06/17 00:36:00;;;;;;;0.70;0.70;;;;;;;21.89;100.00;99295.09;5071111;28;20203;-73
2023/06/17 00:38:26;;;;;;;0.75;0.75;;;;;;;21.93;100.00;99296.72;5070932;28;20206;-74
2023/06/17 00:40:53;;;;;;;0.75;0.75;;;;;;;21.80;100.00;99277.00;5070318;28;20203;-75
2023/06/17 00:43:20;;;;;;;0.60;0.60;;;;;;;21.88;100.00;99296.00;5070187;28;20756;-73
2023/06/17 00:45:49;;;;;;;0.70;0.70;;;;;;;22.17;100.00;99298.28;5035384;28;20199;-74
2023/06/17 00:48:16;;;;;;;0.77;0.77;;;;;;;22.03;100.00;99295.38;5070810;28;20234;-73
2023/06/17 00:50:46;;;;;;;0.70;0.70;;;;;;;21.91;100.00;99285.34;5070885;28;20568;-73
2023/06/17 00:53:13;;;;;;;0.70;0.70;;;;;;;21.92;100.00;99292.34;5071004;28;20201;-73
2023/06/17 00:55:40;;;;;;;0.80;0.80;;;;;;;21.89;100.00;99292.47;5070780;28;20198;-73
2023/06/17 00:58:07;;;;;;;0.70;0.70;;;;;;;21.93;100.00;99286.16;5071096;28;20226;-73
2023/06/17 01:00:34;;;;;;;0.70;0.70;;;;;;;21.92;100.00;99273.88;5071282;28;20203;-73
2023/06/17 01:03:02;;;;;;;0.70;0.70;;;;;;;21.94;100.00;99253.53;5070938;28;20202;-73
2023/06/17 01:05:29;;;;;;;0.80;0.80;;;;;;;21.86;100.00;99276.75;5070855;28;20206;-73
2023/06/17 01:08:09;;;;;;;0.70;0.70;;;;;;;22.05;100.00;99282.97;5070331;28;20214;-73
2023/06/17 01:10:41;;;;;;;0.70;0.70;;;;;;;21.81;100.00;99276.09;5070965;28;20203;-73
2023/06/17 01:13:10;;;;;;;0.80;0.80;;;;;;;21.87;100.00;99273.16;5070711;28;20260;-74
2023/06/17 01:15:37;;;;;;;0.70;0.70;;;;;;;22.02;100.00;99287.50;5070555;28;20206;-73
2023/06/17 01:18:07;;;;;;;0.70;0.70;;;;;;;22.06;100.00;99282.03;5070792;28;20202;-74
2023/06/17 01:20:35;;;;;;;0.77;0.77;;;;;;;21.96;100.00;99282.53;5070809;28;20290;-74
2023/06/17 01:23:05;;;;;;;1.35;0.90;;;;;;;22.07;100.00;99286.41;5070730;28;20230;-74
2023/06/17 01:25:34;;;;;;;0.80;0.80;;;;;;;21.99;100.00;99256.84;5069427;28;20570;-74
2023/06/17 01:28:13;;;;;;;0.90;0.90;;;;;;;22.16;100.00;99285.13;5035458;28;20301;-74
2023/06/17 01:30:40;;;;;;;0.70;0.70;;;;;;;22.03;100.00;99284.81;5070570;28;20226;-74
2023/06/17 01:33:07;;;;;;;0.75;0.75;;;;;;;21.91;100.00;99282.72;5071121;28;20268;-74
2023/06/17 01:35:35;;;;;;;0.77;0.77;;;;;;;21.92;100.00;99265.97;5071084;28;20215;-74
2023/06/17 01:38:07;;;;;;;0.70;0.70;;;;;;;22.21;100.00;99281.38;5070801;28;20207;-74
2023/06/17 01:40:36;;;;;;;0.70;0.70;;;;;;;22.29;100.00;99269.59;5071349;28;20198;-74
2023/06/17 01:43:05;;;;;;;0.70;0.70;;;;;;;22.17;100.00;99282.44;5074196;28;20221;-74
2023/06/17 01:45:33;;;;;;;0.60;0.60;;;;;;;22.13;100.00;99296.69;5073916;28;20279;-74
2023/06/17 01:48:00;;;;;;;0.70;0.70;;;;;;;22.11;100.00;99277.44;5074070;28;20223;-74
2023/06/17 01:50:27;;;;;;;0.80;0.80;;;;;;;22.23;100.00;99297.13;5074247;28;20213;-74
2023/06/17 01:52:53;;;;;;;0.60;0.60;;;;;;;22.17;100.00;99292.13;5073793;28;20210;-74
2023/06/17 01:55:20;;;;;;;0.70;0.70;;;;;;;22.07;100.00;99299.59;5073519;28;20202;-74
2023/06/17 01:57:49;;;;;;;0.70;0.70;;;;;;;22.39;100.00;99297.28;5073974;28;20202;-74
2023/06/17 02:00:16;;;;;;;0.70;0.70;;;;;;;22.08;100.00;99276.72;5073621;28;20544;-74
2023/06/17 02:02:43;;;;;;;0.70;0.70;;;;;;;22.31;100.00;99294.13;5054845;28;20662;-74
2023/06/17 02:05:09;;;;;;;0.70;0.70;;;;;;;22.30;100.00;99300.34;5073558;28;20578;-74
2023/06/17 02:07:37;;;;;;;0.73;0.73;;;;;;;22.28;100.00;99294.28;5073309;28;20223;-74
2023/06/17 02:10:05;;;;;;;0.80;0.80;;;;;;;22.36;100.00;99308.00;5073832;28;20241;-74
2023/06/17 02:12:31;;;;;;;0.65;0.65;;;;;;;22.32;100.00;99309.06;5073149;28;20260;-74
2023/06/17 02:15:00;;;;;;;0.80;0.80;;;;;;;22.39;100.00;99302.59;5073406;28;20202;-74
2023/06/17 02:17:27;;;;;;;0.60;0.60;;;;;;;22.16;100.00;99285.13;5073437;28;20191;-74
2023/06/17 02:19:54;;;;;;;1.25;1.23;;;;;;;22.47;100.00;99306.59;5073413;28;20705;-74
2023/06/17 02:22:21;;;;;;;1.27;1.27;;;;;;;22.37;100.00;99296.50;5042440;28;20211;-74
2023/06/17 02:24:48;;;;;;;0.80;0.77;;;;;;;22.39;100.00;99295.53;5072856;28;20199;-74
2023/06/17 02:27:16;;;;;;;0.80;0.80;;;;;;;22.34;100.00;99296.63;5073238;28;20207;-74
2023/06/17 02:29:43;;;;;;;0.70;0.70;;;;;;;22.17;100.00;99294.75;5038042;28;20234;-73
2023/06/17 02:32:12;;;;;;;0.70;0.70;;;;;;;22.32;100.00;99302.00;5072906;28;20203;-74
2023/06/17 02:34:42;;;;;;;0.63;0.63;;;;;;;22.18;100.00;99300.00;5072645;28;20264;-74
2023/06/17 02:37:09;;;;;;;0.70;0.70;;;;;;;22.35;100.00;99306.28;5058531;28;20285;-74
2023/06/17 02:39:36;;;;;;;1.13;1.02;;;;;;;22.26;100.00;99306.72;5073104;28;20711;-74
2023/06/17 02:42:03;;;;;;;0.80;0.80;;;;;;;22.07;100.00;99304.88;5037603;28;20286;-73
2023/06/17 02:44:30;;;;;;;0.70;0.70;;;;;;;21.98;100.00;99291.22;5037608;28;20594;-74
2023/06/17 02:46:57;;;;;;;0.70;0.70;;;;;;;22.15;100.00;99315.94;5053680;28;20638;-73
2023/06/17 02:49:26;;;;;;;0.75;0.75;;;;;;;22.27;100.00;99303.13;5072940;28;20276;-74
2023/06/17 02:51:53;;;;;;;0.70;0.70;;;;;;;22.27;100.00;99318.97;5072278;28;20264;-74
2023/06/17 02:54:19;;;;;;;0.65;0.65;;;;;;;22.19;100.00;99304.31;5072892;28;20252;-74
2023/06/17 02:56:46;;;;;;;0.63;0.63;;;;;;;22.43;100.00;99326.16;5072600;28;20199;-74
2023/06/17 02:59:15;;;;;;;0.70;0.70;;;;;;;22.67;100.00;99334.78;5072390;28;20207;-74
2023/06/17 03:01:43;;;;;;;0.70;0.70;;;;;;;22.52;100.00;99335.44;5037439;28;20672;-74
2023/06/17 03:04:10;;;;;;;0.70;0.70;;;;;;;22.43;100.00;99338.50;5072464;28;20203;-74
2023/06/17 03:06:40;;;;;;;0.70;0.70;;;;;;;22.48;100.00;99337.34;5072418;28;20242;-74
2023/06/17 03:09:08;;;;;;;0.70;0.70;;;;;;;22.36;100.00;99340.56;5072280;28;20313;-74
2023/06/17 03:11:35;;;;;;;0.68;0.68;;;;;;;22.30;100.00;99339.97;5038231;28;20196;-74
2023/06/17 03:14:01;;;;;;;0.80;0.80;;;;;;;22.28;100.00;99320.69;5069437;28;20206;-74
2023/06/17 03:16:33;;;;;;;1.75;0.98;;;;;;;22.34;100.00;99315.13;5037150;28;20198;-74
2023/06/17 03:19:00;;;;;;;0.70;0.70;;;;;;;22.37;100.00;99320.25;5069386;28;20198;-74
2023/06/17 03:21:29;;;;;;;0.70;0.70;;;;;;;22.32;100.00;99332.84;5071784;28;20262;-74
2023/06/17 03:23:57;;;;;;;0.70;0.70;;;;;;;22.61;100.00;99327.09;5072206;28;20199;-74
2023/06/17 03:26:25;;;;;;;0.70;0.70;;;;;;;22.44;100.00;99342.88;5071183;28;20198;-74
2023/06/17 03:28:52;;;;;;;0.65;0.65;;;;;;;22.40;100.00;99330.72;5072065;28;20222;-74
2023/06/17 03:31:21;;;;;;;0.70;0.70;;;;;;;22.28;100.00;99337.41;5071591;28;20654;-74
2023/06/17 03:33:48;;;;;;;0.70;0.70;;;;;;;22.47;100.00;99332.16;5071699;28;20207;-74
2023/06/17 03:36:16;;;;;;;4.22;2.47;;;;;;;22.50;100.00;99337.31;5072075;28;20256;-74
2023/06/17 03:38:43;;;;;;;1.00;1.00;;;;;;;22.50;100.00;99335.53;5071401;28;20199;-74
2023/06/17 03:41:11;;;;;;;0.60;0.60;;;;;;;22.70;100.00;99329.34;5071739;28;20203;-75
2023/06/17 03:43:38;;;;;;;0.70;0.70;;;;;;;22.36;100.00;99313.28;5071896;28;20646;-74
2023/06/17 03:46:05;;;;;;;0.70;0.70;;;;;;;22.64;100.00;99329.59;5071878;28;20206;-74
2023/06/17 03:48:31;;;;;;;0.75;0.75;;;;;;;22.81;100.00;99348.22;5071601;28;20230;-75
2023/06/17 03:50:58;;;;;;;0.60;0.60;;;;;;;22.71;100.00;99331.91;5071835;28;20202;-74
2023/06/17 03:53:25;;;;;;;0.70;0.70;;;;;;;23.18;100.00;99353.50;5071447;28;20202;-75
2023/06/17 03:55:52;;;;;;;0.70;0.70;;;;;;;23.00;100.00;99349.06;5071369;28;20206;-75
2023/06/17 03:58:21;;;;;;;0.80;0.80;;;;;;;23.18;100.00;99347.34;5071344;28;20206;-75
2023/06/17 04:00:48;;;;;;;0.60;0.60;;;;;;;23.22;100.00;99349.72;5068246;28;20209;-75
2023/06/17 04:03:15;;;;;;;0.70;0.70;;;;;;;23.27;100.00;99348.66;5035958;28;20290;-75
2023/06/17 04:05:42;;;;;;;0.75;0.75;;;;;;;23.45;100.00;99346.00;5071733;28;20203;-76
2023/06/17 04:08:09;;;;;;;1.02;0.85;;;;;;;23.55;100.00;99357.00;5071134;28;20695;-76
2023/06/17 04:10:36;;;;;;;1.00;0.90;;;;;;;23.54;100.00;99355.31;5071313;28;20215;-76
2023/06/17 04:13:03;;;;;;;0.80;0.80;;;;;;;23.40;100.00;99363.03;5071232;28;20195;-76
2023/06/17 04:15:31;;;;;;;0.70;0.70;;;;;;;23.47;100.00;99343.31;5052255;28;20643;-76
2023/06/17 04:17:58;;;;;;;0.70;0.70;;;;;;;23.38;100.00;99354.28;5071288;28;20195;-76
2023/06/17 04:20:25;;;;;;;0.75;0.75;;;;;;;23.17;100.00;99335.03;5071329;28;20203;-76
2023/06/17 04:22:52;;;;;;;0.70;0.70;;;;;;;23.37;100.00;99348.13;5070888;28;20194;-75
2023/06/17 04:25:20;;;;;;;0.70;0.70;;;;;;;23.45;100.00;99348.66;5071193;28;20195;-75
2023/06/17 04:27:48;;;;;;;0.80;0.80;;;;;;;23.48;100.00;99350.28;5071869;28;20289;-77
2023/06/17 04:30:16;;;;;;;0.70;0.70;;;;;;;23.46;100.00;99362.75;5068424;28;20240;-73
2023/06/17 04:32:44;;;;;;;0.80;0.80;;;;;;;23.45;100.00;99358.38;5070886;28;20229;-74
2023/06/17 04:35:11;;;;;;;0.80;0.80;;;;;;;23.48;100.00;99339.72;5071380;28;20195;-75
2023/06/17 04:37:40;;;;;;;0.90;0.90;;;;;;;23.81;100.00;99353.91;5071136;28;20223;-75
2023/06/17 04:40:11;;;;;;;0.80;0.80;;;;;;;23.81;100.00;99347.75;5070841;28;20204;-73
2023/06/17 04:42:40;;;;;;;0.80;0.80;;;;;;;23.75;100.00;99351.59;5059952;28;20203;-75
2023/06/17 04:45:08;;;;;;;0.70;0.70;;;;;;;23.81;100.00;99369.81;5071366;28;20194;-75
2023/06/17 04:47:35;;;;;;;0.80;0.80;;;;;;;23.83;100.00;99372.38;5036274;28;20294;-75
2023/06/17 04:50:03;;;;;;;0.70;0.70;;;;;;;23.78;100.00;99369.09;5031077;28;20677;-74
2023/06/17 04:52:31;;;;;;;0.73;0.73;;;;;;;23.75;100.00;99378.06;5070531;28;20600;-75
2023/06/17 04:54:57;;;;;;;0.95;0.82;;;;;;;23.59;100.00;99379.75;5071167;28;20653;-76
2023/06/17 04:57:24;;;;;;;0.73;0.73;;;;;;;23.68;100.00;99384.59;5070985;28;20195;-73
2023/06/17 04:59:51;;;;;;;0.60;0.60;;;;;;;23.89;100.00;99380.00;5070856;28;20194;-75
2023/06/17 05:02:18;;;;;;;0.80;0.80;;;;;;;24.00;100.00;99377.69;5071187;28;20202;-75
2023/06/17 05:04:44;;;;;;;1.85;1.05;;;;;;;24.09;100.00;99390.44;5068196;28;20210;-76
2023/06/17 05:07:13;;;;;;;0.80;0.80;;;;;;;24.39;100.00;99378.31;5066900;28;20190;-76
2023/06/17 05:09:39;;;;;;;1.42;1.38;;;;;;;24.42;100.00;99391.38;5070651;28;20226;-76
2023/06/17 05:12:06;;;;;;;0.75;0.75;;;;;;;24.42;100.00;99401.13;5070962;28;20206;-76
2023/06/17 05:14:33;;;;;;;2.15;1.00;;;;;;;24.48;100.00;99399.00;5034125;28;20210;-75
2023/06/17 05:17:00;;;;;;;0.80;0.80;;;;;;;24.08;100.00;99405.47;5071936;28;20207;-76
2023/06/17 05:19:27;;;;;;;0.73;0.73;;;;;;;24.11;100.00;99407.97;5065856;28;20203;-77
2023/06/17 05:21:53;;;;;;;0.70;0.70;;;;;;;24.46;100.00;99410.63;5071648;28;20203;-77
2023/06/17 05:24:21;;;;;;;0.90;0.90;;;;;;;24.75;100.00;99423.22;5064260;28;20218;-77
2023/06/17 05:26:48;;;;;;;2.00;1.00;;;;;;;24.56;100.00;99433.06;5072712;28;20206;-76
2023/06/17 05:29:15;;;;;;;0.70;0.70;;;;;;;24.43;100.00;99426.69;5040824;28;20226;-76
2023/06/17 05:31:42;;;;;;;0.82;0.82;;;;;;;24.46;100.00;99434.50;5057734;28;20238;-74
2023/06/17 05:34:08;;;;;;;0.90;0.90;;;;;;;24.22;100.00;99433.09;5070264;28;20195;-76
2023/06/17 05:36:35;;;;;;;0.80;0.80;;;;;;;24.23;100.00;99435.66;5061567;28;20207;-76
2023/06/17 05:39:02;;;;;;;0.80;0.80;;;;;;;24.15;100.00;99422.81;5057981;28;20230;-75
2023/06/17 05:41:30;;;;;;;0.80;0.80;;;;;;;24.47;100.00;99444.16;5068077;28;20206;-75
2023/06/17 05:43:57;;;;;;;0.77;0.77;;;;;;;24.50;100.00;99449.31;5055906;28;20268;-75
2023/06/17 05:46:24;;;;;;;1.10;1.00;;;;;;;24.31;100.00;99438.78;5057602;28;20218;-75
2023/06/17 05:48:51;;;;;;;0.90;0.90;;;;;;;24.44;100.00;99433.69;5054740;28;20227;-76
2023/06/17 05:51:17;;;;;;;0.80;0.80;;;;;;;24.48;100.00;99436.13;5060726;28;20218;-74
2023/06/17 05:53:44;;;;;;;0.60;0.60;;;;;;;24.51;100.00;99440.38;5066583;28;20562;-74
2023/06/17 05:56:11;;;;;;;0.98;0.90;;;;;;;24.40;100.00;99438.28;5073543;28;20677;-74
2023/06/17 05:58:39;;;;;;;1.40;0.90;;;;;;;24.57;100.00;99445.41;5074001;28;20276;-74
2023/06/17 06:01:06;;;;;;;0.80;0.80;;;;;;;24.50;100.00;99449.31;5073917;28;20408;-75
2023/06/17 06:03:33;;;;;;;0.77;0.77;;;;;;;24.47;100.00;99449.47;5067315;28;20198;-75
2023/06/17 06:05:59;;;;;;;0.80;0.80;;;;;;;24.04;100.00;99376.59;5057775;28;20202;-75
2023/06/17 06:08:26;;;;;;;0.70;0.70;;;;;;;24.17;100.00;99436.84;5071444;28;20203;-75
2023/06/17 06:10:53;;;;;;;0.75;0.75;;;;;;;24.33;100.00;99446.66;5062994;28;20255;-76
2023/06/17 06:13:20;;;;;;;0.60;0.60;;;;;;;24.16;100.00;99450.16;5059965;28;20210;-75
2023/06/17 06:15:48;;;;;;;0.70;0.70;;;;;;;24.58;100.00;99449.75;5059767;28;20210;-75
2023/06/17 06:18:15;;;;;;;0.73;0.73;;;;;;;24.30;100.00;99446.81;5052761;28;20200;-75
2023/06/17 06:20:42;;;;;;;0.70;0.70;;;;;;;24.28;100.00;99427.47;5053383;28;20215;-76
2023/06/17 06:23:09;;;;;;;0.70;0.70;;;;;;;24.45;100.00;99451.31;5056226;28;20206;-75
2023/06/17 06:25:37;;;;;;;1.65;1.42;;;;;;;24.58;100.00;99452.38;5071132;28;20670;-75
2023/06/17 06:28:05;;;;;;;0.90;0.80;;;;;;;24.58;100.00;99455.03;5072960;28;20214;-78
2023/06/17 06:30:32;;;;;;;0.85;0.85;;;;;;;24.55;100.00;99464.03;5073638;28;20337;-73
2023/06/17 06:33:00;;;;;;;0.65;0.65;;;;;;;24.79;100.00;99459.25;5072811;28;20241;-73
2023/06/17 06:35:27;;;;;;;0.85;0.85;;;;;;;24.56;100.00;99462.22;5072846;28;20724;-74
2023/06/17 06:37:54;;;;;;;0.80;0.80;;;;;;;24.77;100.00;99462.91;5072794;28;20206;-73
2023/06/17 06:40:20;;;;;;;0.82;0.82;;;;;;;24.82;100.00;99461.72;5054351;28;20207;-73
2023/06/17 06:42:47;;;;;;;0.80;0.80;;;;;;;24.42;100.00;99393.19;5038837;28;20578;-73
2023/06/17 06:45:14;;;;;;;1.38;1.08;;;;;;;24.84;100.00;99465.19;5073009;28;20218;-75
2023/06/17 06:47:41;;;;;;;1.48;0.98;;;;;;;25.09;100.00;99475.34;5072915;28;20306;-75
2023/06/17 06:50:09;;;;;;;0.70;0.70;;;;;;;24.89;100.00;99472.91;5054144;28;20766;-74
2023/06/17 06:52:36;;;;;;;0.70;0.70;;;;;;;24.55;100.00;99473.75;5037489;28;20206;-74
2023/06/17 06:55:03;;;;;;;0.90;0.90;;;;;;;24.76;100.00;99458.56;5072784;28;20210;-74
2023/06/17 06:57:30;;;;;;;1.08;0.90;;;;;;;25.06;100.00;99476.38;5072778;28;20256;-75
2023/06/17 06:59:57;;;;;;;0.80;0.80;;;;;;;25.19;100.00;99476.53;5061857;28;20667;-74
2023/06/17 07:02:23;;;;;;;0.70;0.70;;;;;;;25.28;100.00;99480.50;5063428;28;20195;-76
2023/06/17 07:04:51;;;;;;;0.80;0.80;;;;;;;25.75;100.00;99480.56;5057554;28;20650;-75
2023/06/17 07:07:19;;;;;;;3.97;1.70;;;;;;;25.84;100.00;99480.03;5052989;28;20620;-77
2023/06/17 07:09:46;;;;;;;0.65;0.65;;;;;;;25.58;100.00;99469.06;5064620;28;20231;-76
2023/06/17 07:12:13;;;;;;;0.82;0.82;;;;;;;25.55;100.00;99479.00;5072693;28;20203;-78
2023/06/17 07:14:40;;;;;;;0.90;0.90;;;;;;;25.46;100.00;99474.19;5073836;28;20211;-80
2023/06/17 07:17:06;;;;;;;1.00;1.00;;;;;;;25.16;100.00;99474.06;5073302;28;20210;-77
2023/06/17 07:19:33;;;;;;;0.80;0.80;;;;;;;24.97;100.00;99447.66;5038386;28;20279;-78
2023/06/17 07:22:00;;;;;;;0.80;0.80;;;;;;;25.03;100.00;99462.41;5067690;28;20203;-79
2023/06/17 07:24:28;;;;;;;0.75;0.75;;;;;;;25.30;100.00;99468.00;5059636;28;20286;-80
2023/06/17 07:26:55;;;;;;;0.80;0.80;;;;;;;25.07;100.00;99478.09;5054485;28;20716;-77
2023/06/17 07:29:22;;;;;;;0.70;0.70;;;;;;;25.23;100.00;99469.28;5057486;28;20222;-79
2023/06/17 07:31:48;;;;;;;1.98;1.88;;;;;;;25.10;100.00;99477.06;5055981;28;20234;-78
2023/06/17 07:34:15;;;;;;;0.82;0.82;;;;;;;24.87;100.00;99475.63;5068204;28;20281;-79
2023/06/17 07:36:42;;;;;;;0.70;0.70;;;;;;;24.82;100.00;99472.34;5058890;28;20659;-80
2023/06/17 07:39:09;;;;;;;0.77;0.77;;;;;;;24.79;100.00;99461.91;5064339;28;20598;-76
2023/06/17 07:41:37;;;;;;;0.70;0.70;;;;;;;24.76;100.00;99469.16;5067380;28;20265;-76
2023/06/17 07:44:05;;;;;;;0.70;0.70;;;;;;;24.83;100.00;99474.06;5047326;28;20211;-78
2023/06/17 07:46:32;;;;;;;0.60;0.60;;;;;;;24.84;100.00;99472.28;5060135;28;20203;-77
2023/06/17 07:48:58;;;;;;;1.45;1.45;;;;;;;24.93;100.00;99470.00;5057713;28;20214;-77
2023/06/17 07:51:25;;;;;;;0.80;0.80;;;;;;;24.92;100.00;99470.06;5068496;28;20262;-78
2023/06/17 07:53:52;;;;;;;0.70;0.70;;;;;;;24.78;100.00;99464.63;5051923;28;20215;-73
2023/06/17 07:56:20;;;;;;;0.88;0.88;;;;;;;25.06;100.00;99460.44;5056304;28;20211;-75
2023/06/17 07:58:49;;;;;;;0.77;0.77;;;;;;;25.17;100.00;99450.09;5055208;28;20294;-75
2023/06/17 08:01:16;;;;;;;0.73;0.73;;;;;;;25.39;100.00;99481.63;5051421;28;20207;-74
2023/06/17 08:03:42;;;;;;;0.70;0.70;;;;;;;25.33;100.00;99481.94;5051618;28;20682;-77
2023/06/17 08:06:13;;;;;;;0.80;0.80;;;;;;;25.63;100.00;99482.09;5058106;28;20204;-77
2023/06/17 08:08:40;;;;;;;1.00;0.90;;;;;;;25.37;100.00;99485.28;5053819;28;20277;-75
2023/06/17 08:11:06;;;;;;;0.80;0.80;;;;;;;25.70;100.00;99483.47;5049528;28;20694;-81
2023/06/17 08:13:33;;;;;;;0.85;0.82;;;;;;;25.87;100.00;99478.03;5053650;28;20212;-79
2023/06/17 08:16:01;;;;;;;3.10;1.33;;;;;;;25.41;100.00;99421.34;5058686;28;20211;-77
2023/06/17 08:18:28;;;;;;;0.60;0.60;;;;;;;25.65;100.00;99481.06;5062273;28;20614;-75
2023/06/17 08:20:55;;;;;;;0.93;0.93;;;;;;;25.76;100.00;99464.50;5052130;28;20667;-78
2023/06/17 08:23:22;;;;;;;0.80;0.80;;;;;;;25.92;100.00;99481.31;5054046;28;20203;-78
2023/06/17 08:25:49;;;;;;;0.80;0.80;;;;;;;25.69;100.00;99480.88;5063727;28;20207;-76
2023/06/17 08:28:16;;;;;;;1.10;1.00;;;;;;;25.59;100.00;99486.72;5067930;28;20202;-77
2023/06/17 08:30:43;;;;;;;0.70;0.70;;;;;;;25.67;100.00;99488.09;5071530;28;20257;-77
2023/06/17 08:33:11;;;;;;;0.80;0.80;;;;;;;25.68;100.00;99464.13;5071739;28;20670;-79
2023/06/17 08:35:38;;;;;;;1.00;1.00;;;;;;;25.33;100.00;99489.09;5071578;28;20207;-79
2023/06/17 08:38:04;;;;;;;0.95;0.95;;;;;;;25.02;100.00;99490.72;5071553;28;20571;-78
2023/06/17 08:40:33;;;;;;;0.80;0.80;;;;;;;25.42;100.00;99488.56;5071866;28;20226;-78
2023/06/17 08:43:02;;;;;;;0.70;0.70;;;;;;;25.49;100.00;99490.81;5071870;28;20237;-78
2023/06/17 08:45:29;;;;;;;0.63;0.63;;;;;;;25.67;100.00;99488.94;5070590;28;20290;-78
2023/06/17 08:47:56;;;;;;;1.27;1.17;;;;;;;25.82;100.00;99488.09;5071587;28;20206;-78
2023/06/17 08:50:25;;;;;;;0.80;0.80;;;;;;;25.83;100.00;99489.78;5045849;28;20767;-79
2023/06/17 08:52:53;;;;;;;0.70;0.70;;;;;;;25.85;100.00;99493.22;5056445;28;20242;-76
2023/06/17 08:55:20;;;;;;;0.90;0.90;;;;;;;26.00;100.00;99497.69;5070492;28;20218;-76
2023/06/17 08:57:50;;;;;;;0.70;0.70;;;;;;;26.34;100.00;99501.03;5060910;28;20210;-78
2023/06/17 09:00:18;;;;;;;0.90;0.90;;;;;;;26.45;100.00;99493.28;5059428;28;20958;-76
2023/06/17 09:02:46;;;;;;;0.82;0.82;;;;;;;26.51;100.00;99490.25;5054786;28;20203;-76
2023/06/17 09:05:12;;;;;;;0.70;0.70;;;;;;;26.78;100.00;99496.59;5062812;28;20227;-78
2023/06/17 09:07:42;;;;;;;0.88;0.88;;;;;;;27.37;100.00;99497.38;5054862;28;20242;-78
2023/06/17 09:10:09;;;;;;;0.90;0.90;;;;;;;27.25;100.00;99500.84;5067431;28;20226;-74
2023/06/17 09:12:37;;;;;;;2.42;1.20;;;;;;;27.18;99.34;99502.19;5039934;28;20204;-78
2023/06/17 09:15:06;;;;;;;0.95;0.95;;;;;;;27.32;97.53;99510.16;5061864;28;20290;-75
2023/06/17 09:17:33;;;;;;;0.80;0.80;;;;;;;27.80;95.76;99504.38;5037186;28;20207;-76
2023/06/17 09:20:10;;;;;;;0.60;0.60;;;;;;;28.19;91.65;99498.28;5059362;28;20205;-75
2023/06/17 09:22:41;;;;;;;0.93;0.80;;;;;;;28.08;94.52;99501.66;5055662;28;20238;-74
2023/06/17 09:25:14;;;;;;;0.82;0.82;;;;;;;27.50;92.86;99415.81;5063871;28;20261;-73
2023/06/17 09:27:51;;;;;;;0.70;0.70;;;;;;;28.77;91.25;99508.56;5065967;28;20260;-74
2023/06/17 09:30:20;;;;;;;0.68;0.68;;;;;;;28.83;88.01;99492.13;5068294;28;20586;-75
2023/06/17 09:32:49;;;;;;;0.60;0.60;;;;;;;28.87;86.81;99514.13;5063727;28;20203;-77
2023/06/17 09:35:17;;;;;;;3.63;3.35;;;;;;;28.97;84.11;99496.50;5061881;28;20238;-76
2023/06/17 09:37:49;;;;;;;0.75;0.75;;;;;;;29.20;84.26;99494.88;5064289;28;20229;-76
2023/06/17 09:40:16;;;;;;;0.60;0.60;;;;;;;29.06;83.17;99493.19;5063841;28;20218;-82
2023/06/17 09:42:44;;;;;;;0.70;0.70;;;;;;;28.88;84.36;99500.69;5058297;28;20253;-87
2023/06/17 09:45:13;;;;;;;0.70;0.70;;;;;;;29.42;84.48;99513.81;5068300;28;20190;-85
2023/06/17 09:47:40;;;;;;;0.57;0.57;;;;;;;29.78;79.61;99519.19;5062663;28;20653;-80
2023/06/17 09:50:10;;;;;;;0.70;0.70;;;;;;;30.76;74.57;99508.22;5070941;28;20234;-78
2023/06/17 09:52:38;;;;;;;0.70;0.70;;;;;;;31.17;72.85;99517.56;5057270;28;20228;-75
2023/06/17 09:55:07;;;;;;;0.63;0.63;;;;;;;32.09;69.30;99528.00;5063838;28;20265;-78
2023/06/17 09:57:36;;;;;;;0.70;0.70;;;;;;;32.32;65.54;99517.03;5035747;28;20203;-76
2023/06/17 10:00:10;;;;;;;0.70;0.70;;;;;;;32.44;62.12;99523.22;5061095;28;20230;-76
2023/06/17 10:02:38;;;;;;;0.50;0.50;;;;;;;32.83;59.63;99524.41;5054463;28;20213;-77
2023/06/17 10:05:08;;;;;;;0.50;0.50;;;;;;;32.19;59.33;99528.94;5046781;28;20201;-74
2023/06/17 10:07:35;;;;;;;1.40;1.15;;;;;;;31.69;60.51;99528.53;5056619;28;20246;-75
2023/06/17 10:10:03;;;;;;;0.60;0.60;;;;;;;31.53;62.61;99527.22;5061661;28;20203;-78
2023/06/17 10:12:33;;;;;;;0.60;0.60;;;;;;;32.18;60.36;99519.19;5054217;28;20219;-76
2023/06/17 10:15:03;;;;;;;0.65;0.65;;;;;;;31.80;61.10;99501.72;5056383;28;20207;-77
2023/06/17 10:17:32;;;;;;;0.75;0.75;;;;;;;32.25;61.45;99528.44;5054472;28;20305;-76
2023/06/17 10:20:05;;;;;;;0.98;0.88;;;;;;;32.07;63.62;99527.28;5054408;28;20210;-79
2023/06/17 10:22:33;;;;;;;0.63;0.63;;;;;;;32.31;62.33;99522.56;5059581;28;20195;-80
2023/06/17 10:25:00;;;;;;;0.70;0.70;;;;;;;30.96;63.94;99520.09;5066621;28;20662;-78
2023/06/17 10:27:27;;;;;;;0.60;0.60;;;;;;;31.45;64.87;99522.44;5069633;28;20203;-78
2023/06/17 10:29:58;;;;;;;0.70;0.70;;;;;;;31.62;62.05;99521.97;5058781;28;20223;-77
2023/06/17 10:32:26;;;;;;;0.60;0.60;;;;;;;31.30;65.34;99515.63;5059913;28;20291;-77
2023/06/17 10:35:09;;;;;;;0.70;0.70;;;;;;;31.39;63.96;99513.06;5057620;28;20566;-77
2023/06/17 10:37:40;;;;;;;0.52;0.52;;;;;;;30.83;66.86;99504.09;5065819;28;20725;-79
2023/06/17 10:40:24;;;;;;;3.25;1.55;;;;;;;30.02;70.89;99511.19;5067334;28;20292;-77
2023/06/17 10:42:58;;;;;;;0.50;0.50;;;;;;;29.99;74.10;99512.28;5066670;28;20281;-77
2023/06/17 10:45:29;;;;;;;0.52;0.52;;;;;;;30.07;73.55;99513.53;5055532;28;20231;-77
2023/06/17 10:48:14;;;;;;;0.80;0.80;;;;;;;29.57;77.19;99498.50;5058973;28;20239;-78
2023/06/17 10:50:42;;;;;;;0.70;0.70;;;;;;;29.57;77.24;99496.69;5065493;28;20259;-77
2023/06/17 10:53:09;;;;;;;0.70;0.70;;;;;;;30.07;75.84;99494.81;5059673;28;20206;-77
2023/06/17 10:55:36;;;;;;;0.77;0.77;;;;;;;30.01;73.69;99462.19;5050724;28;20245;-76
2023/06/17 10:58:03;;;;;;;0.60;0.60;;;;;;;29.87;73.40;99497.13;5050109;28;20226;-78
2023/06/17 11:00:31;;;;;;;0.65;0.65;;;;;;;29.33;79.08;99498.41;5058848;28;20619;-79
2023/06/17 11:02:58;;;;;;;0.70;0.70;;;;;;;28.31;85.19;99483.28;5070397;28;20202;-77
2023/06/17 11:05:25;;;;;;;0.70;0.70;;;;;;;28.60;86.91;99484.81;5073112;28;20571;-77
2023/06/17 11:07:52;;;;;;;0.80;0.80;;;;;;;29.17;84.09;99477.28;5072512;28;20277;-77
2023/06/17 11:10:25;;;;;;;1.35;1.25;;;;;;;29.37;82.42;99489.22;5072811;28;20202;-77
2023/06/17 11:12:53;;;;;;;0.65;0.65;;;;;;;29.20;79.89;99478.88;5073513;28;20295;-77
2023/06/17 11:15:21;;;;;;;0.75;0.75;;;;;;;29.08;83.57;99475.25;5071846;28;20202;-77
2023/06/17 11:17:59;;;;;;;1.08;0.85;;;;;;;28.74;82.37;99474.09;5072130;28;20207;-75
2023/06/17 11:20:26;;;;;;;0.68;0.68;;;;;;;28.67;83.34;99467.47;5071933;28;20209;-78
2023/06/17 11:22:53;;;;;;;0.70;0.70;;;;;;;28.60;83.98;99463.50;5070663;28;20690;-76
2023/06/17 11:25:20;;;;;;;0.70;0.70;;;;;;;28.65;83.00;99456.00;5065122;28;20223;-76
2023/06/17 11:27:47;;;;;;;1.40;0.98;;;;;;;28.85;82.59;99454.66;5063578;28;20194;-75
2023/06/17 11:30:15;;;;;;;0.82;0.82;;;;;;;28.88;82.99;99457.13;5071909;28;20230;-76